Time;durP1;ratioP1;P1;durP2;ratioP2;P2;SDS_P1;SDS_P2;PMS_P1;PMS_P2;Temp;Humidity;BMP_temperature;BMP_pressure;BME280_temperature;BME280_humidity;BME280_pressure;Samples;Min_cycle;Max_cycle;Signal;HPM_P1;HPM_P2
2021/12/02 00:01:24;;;;;;;7.75;1.27;;;;;;;0.06;100.00;98278.88;4882741;29;20048;-87
2021/12/02 00:03:50;;;;;;;4.07;1.00;;;;;;;0.03;100.00;98268.84;4901840;29;20032;-87
2021/12/02 00:06:18;;;;;;;8.35;1.70;;;;;;;-0.01;100.00;98331.06;4889678;29;20051;-88
2021/12/02 00:08:45;;;;;;;5.63;1.10;;;;;;;0.00;100.00;98259.66;4889656;29;20039;-87
2021/12/02 00:11:12;;;;;;;8.00;1.52;;;;;;;-0.22;100.00;98229.91;4888557;29;20157;-85
2021/12/02 00:21:42;;;;;;;4.20;0.93;;;;;;;0.09;100.00;98263.94;4906624;29;20019;-86
2021/12/02 00:24:18;;;;;;;10.15;1.10;;;;;;;-0.05;100.00;98251.53;4905095;29;20467;-86
2021/12/02 00:26:45;;;;;;;9.00;1.50;;;;;;;0.26;100.00;98292.47;4905074;29;20494;-85
2021/12/02 00:29:11;;;;;;;9.52;2.20;;;;;;;-0.01;100.00;98216.72;4916398;29;20032;-87
2021/12/02 00:31:39;;;;;;;11.70;1.10;;;;;;;0.35;100.00;98273.53;4905094;29;20097;-88
2021/12/02 00:34:15;;;;;;;5.10;1.45;;;;;;;0.11;100.00;98223.31;4888302;29;20068;-86
2021/12/02 00:36:41;;;;;;;5.72;1.02;;;;;;;0.37;100.00;98250.94;4902824;29;20036;-85
2021/12/02 00:39:14;;;;;;;8.73;1.10;;;;;;;0.22;100.00;98216.31;4887655;29;20032;-85
2021/12/02 00:41:40;;;;;;;10.03;1.30;;;;;;;0.37;100.00;98225.13;4903827;29;20043;-85
2021/12/02 00:44:07;;;;;;;8.15;1.42;;;;;;;0.49;100.00;98261.06;4904446;29;20035;-88
2021/12/02 00:46:34;;;;;;;5.68;1.20;;;;;;;0.38;100.00;98226.75;4904138;29;20036;-85
2021/12/02 00:49:03;;;;;;;7.63;1.20;;;;;;;0.50;100.00;98244.59;4904175;29;20039;-85
2021/12/02 00:51:33;;;;;;;3.72;1.02;;;;;;;0.57;100.00;98233.53;4887120;29;20043;-85
2021/12/02 00:54:10;;;;;;;9.40;1.25;;;;;;;0.64;100.00;98251.81;4887294;29;20136;-85
2021/12/02 00:56:37;;;;;;;4.97;1.75;;;;;;;0.80;100.00;98252.91;4902999;29;20032;-84
2021/12/02 00:59:04;;;;;;;2.60;0.80;;;;;;;0.54;100.00;98194.28;4903030;29;20040;-84
2021/12/02 01:01:35;;;;;;;6.18;1.10;;;;;;;0.85;100.00;98248.09;4887203;29;20118;-83
2021/12/02 01:04:03;;;;;;;2.78;0.80;;;;;;;0.57;100.00;98204.28;4887030;29;20099;-87
2021/12/02 01:06:31;;;;;;;6.80;1.15;;;;;;;0.88;100.00;98252.94;4903051;29;20079;-86
2021/12/02 01:08:57;;;;;;;7.47;1.33;;;;;;;0.95;100.00;98279.78;4887020;29;20367;-83
2021/12/02 01:11:23;;;;;;;6.57;1.05;;;;;;;0.79;100.00;98228.03;4902182;29;20048;-85
2021/12/02 01:13:49;;;;;;;8.80;1.30;;;;;;;1.04;100.00;98266.94;4902589;29;20175;-85
2021/12/02 01:16:16;;;;;;;5.43;1.38;;;;;;;1.12;100.00;98275.56;4885893;29;20065;-86
2021/12/02 01:18:42;;;;;;;8.15;1.20;;;;;;;0.72;100.00;98227.81;4902722;29;20036;-85
2021/12/02 01:21:16;;;;;;;6.22;1.52;;;;;;;0.94;100.00;98269.63;4902540;29;20028;-86
2021/12/02 01:23:44;;;;;;;10.55;1.23;;;;;;;0.97;100.00;98298.53;4889743;29;20478;-85
2021/12/02 01:26:10;;;;;;;6.95;1.00;;;;;;;0.80;100.00;98278.75;4919689;29;20035;-85
2021/12/02 01:28:37;;;;;;;6.97;1.15;;;;;;;0.76;100.00;98251.56;4886521;29;20127;-86
2021/12/02 01:31:04;;;;;;;4.85;1.10;;;;;;;0.75;100.00;98257.69;4902735;29;20494;-86
2021/12/02 01:33:29;;;;;;;5.10;1.23;;;;;;;0.80;100.00;98269.19;4919177;29;20068;-86
2021/12/02 01:35:58;;;;;;;5.85;0.90;;;;;;;0.85;100.00;98263.59;4902468;29;20028;-88
2021/12/02 01:38:26;;;;;;;2.45;1.00;;;;;;;0.80;100.00;98281.31;4919138;29;20135;-86
2021/12/02 01:40:54;;;;;;;5.78;1.20;;;;;;;0.73;100.00;98247.53;4918689;29;20486;-87
2021/12/02 01:43:22;;;;;;;2.53;0.90;;;;;;;0.84;100.00;98280.06;4886881;29;20051;-84
2021/12/02 01:45:47;;;;;;;4.30;1.00;;;;;;;1.13;100.00;98304.78;4902358;29;20035;-87
2021/12/02 01:48:23;;;;;;;12.60;1.55;;;;;;;0.98;100.00;98278.69;4902249;29;20039;-85
2021/12/02 01:51:01;;;;;;;2.55;0.80;;;;;;;1.06;100.00;98280.53;4902050;29;20035;-87
2021/12/02 01:53:32;;;;;;;7.75;1.30;;;;;;;1.05;100.00;98315.09;4902482;29;20483;-87
2021/12/02 01:56:09;;;;;;;2.85;0.98;;;;;;;1.09;100.00;98306.06;4886309;29;20032;-86
2021/12/02 01:58:41;;;;;;;5.20;1.10;;;;;;;1.26;100.00;98312.13;4918163;29;20032;-84
2021/12/02 02:01:14;;;;;;;4.32;0.98;;;;;;;1.18;100.00;98315.50;4901754;29;20059;-88
2021/12/02 02:03:41;;;;;;;4.82;1.00;;;;;;;1.31;100.00;98329.78;4886145;29;20024;-85
2021/12/02 02:06:08;;;;;;;8.20;1.40;;;;;;;1.32;100.00;98326.22;4901636;29;20099;-85
2021/12/02 02:08:35;;;;;;;3.28;0.98;;;;;;;1.29;100.00;98329.94;4901147;29;20032;-84
2021/12/02 02:11:01;;;;;;;1.48;0.80;;;;;;;1.29;100.00;98296.34;4901437;29;20031;-84
2021/12/02 02:13:27;;;;;;;3.83;0.93;;;;;;;1.19;100.00;98295.63;4918168;29;20039;-84
2021/12/02 02:15:54;;;;;;;4.18;1.20;;;;;;;1.32;100.00;98328.81;4886075;29;20510;-86
2021/12/02 02:18:22;;;;;;;2.83;0.70;;;;;;;1.33;100.00;98330.44;4886429;29;20036;-86
2021/12/02 02:20:54;;;;;;;5.60;1.10;;;;;;;1.45;100.00;98328.41;4885631;29;20044;-84
2021/12/02 02:23:20;;;;;;;11.35;1.48;;;;;;;1.42;100.00;98311.44;4900908;29;20112;-85
2021/12/02 02:25:47;;;;;;;4.63;1.38;;;;;;;1.49;100.00;98346.06;4884812;29;20031;-84
2021/12/02 02:28:14;;;;;;;6.65;1.10;;;;;;;1.44;100.00;98306.91;4900480;29;20111;-84
2021/12/02 02:30:41;;;;;;;2.70;0.77;;;;;;;1.47;100.00;98308.38;4885013;29;20497;-86
2021/12/02 02:33:07;;;;;;;3.92;1.20;;;;;;;1.47;100.00;98296.25;4884621;29;20039;-84
2021/12/02 02:35:32;;;;;;;8.68;1.10;;;;;;;1.53;100.00;98323.28;4885003;29;20434;-84
2021/12/02 02:38:00;;;;;;;6.22;1.05;;;;;;;1.50;100.00;98314.06;4884630;29;20036;-84
2021/12/02 02:40:26;;;;;;;5.75;0.90;;;;;;;1.51;100.00;98313.09;4900927;29;20051;-86
2021/12/02 02:42:58;;;;;;;1.73;0.68;;;;;;;1.59;100.00;98316.69;4917358;29;20479;-84
2021/12/02 02:45:25;;;;;;;2.78;0.60;;;;;;;1.54;100.00;98309.41;4885145;29;20035;-84
2021/12/02 02:47:51;;;;;;;5.35;0.77;;;;;;;1.40;100.00;98315.94;4917146;29;20103;-84
2021/12/02 02:50:17;;;;;;;7.85;1.50;;;;;;;1.70;100.00;98303.47;4916442;29;20062;-84
2021/12/02 02:52:44;;;;;;;1.38;0.80;;;;;;;1.67;100.00;98306.38;4884058;29;20036;-85
2021/12/02 02:55:14;;;;;;;6.93;0.82;;;;;;;1.63;100.00;98299.91;4884938;29;20039;-84
2021/12/02 02:57:47;;;;;;;2.72;0.68;;;;;;;1.60;100.00;98258.81;4895794;29;20032;-84
2021/12/02 03:00:17;;;;;;;;;;;;;;;1.76;100.00;98284.72;4881428;29;20040;-84
2021/12/02 03:05:37;;;;;;;2.38;0.82;;;;;;;1.65;100.00;98264.34;4893251;29;20028;-85
2021/12/02 03:08:17;;;;;;;1.13;0.43;;;;;;;1.75;100.00;98293.47;4900317;29;20110;-84
2021/12/02 03:10:47;;;;;;;6.88;1.23;;;;;;;1.77;100.00;98294.13;4884429;29;20036;-86
2021/12/02 03:13:28;;;;;;;2.25;0.60;;;;;;;1.63;100.00;98286.97;4916859;29;20046;-85
2021/12/02 03:18:39;;;;;;;2.65;1.27;;;;;;;1.61;100.00;98289.69;4900527;29;20032;-88
2021/12/02 03:21:22;;;;;;;4.78;0.88;;;;;;;1.46;100.00;98255.03;4884450;29;20039;-87
2021/12/02 03:23:53;;;;;;;3.78;1.42;;;;;;;1.42;100.00;98267.47;4884991;29;20024;-86
2021/12/02 03:26:19;;;;;;;6.95;0.70;;;;;;;1.52;100.00;98306.16;4884723;29;20042;-87
2021/12/02 03:28:49;;;;;;;8.25;1.38;;;;;;;1.18;100.00;98310.34;4884603;29;20513;-87
2021/12/02 03:31:15;;;;;;;4.15;1.17;;;;;;;1.09;100.00;98262.13;4917319;29;20028;-88
2021/12/02 03:33:41;;;;;;;5.40;1.08;;;;;;;1.15;100.00;98279.59;4900376;29;20577;-88
2021/12/02 03:36:08;;;;;;;2.45;0.90;;;;;;;0.99;100.00;98286.31;4884758;29;20036;-88
2021/12/02 03:38:35;;;;;;;2.58;0.70;;;;;;;1.12;100.00;98290.25;4899772;29;20024;-88
2021/12/02 03:41:00;;;;;;;3.33;0.85;;;;;;;1.15;100.00;98305.44;4885116;29;20032;-86
2021/12/02 03:43:27;;;;;;;5.40;1.02;;;;;;;1.14;100.00;98304.66;4884715;29;20103;-86
2021/12/02 03:45:54;;;;;;;3.83;1.02;;;;;;;1.19;100.00;98303.38;4883813;29;20456;-89
2021/12/02 03:48:20;;;;;;;3.67;0.90;;;;;;;1.19;100.00;98321.47;4885081;29;20055;-85
2021/12/02 03:50:45;;;;;;;4.78;1.48;;;;;;;1.02;100.00;98294.72;4900270;29;20036;-85
2021/12/02 03:53:11;;;;;;;5.82;0.88;;;;;;;1.10;100.00;98307.69;4900011;29;20028;-84
2021/12/02 03:55:38;;;;;;;4.65;1.10;;;;;;;1.01;100.00;98303.44;4884981;29;20036;-86
2021/12/02 03:58:03;;;;;;;4.65;0.90;;;;;;;1.03;100.00;98314.44;4900046;29;20120;-84
2021/12/02 04:00:29;;;;;;;3.55;0.98;;;;;;;0.77;100.00;98287.59;4884715;29;20043;-86
2021/12/02 04:02:54;;;;;;;5.53;0.90;;;;;;;0.92;100.00;98311.09;4900086;29;20498;-86
2021/12/02 04:05:20;;;;;;;2.38;0.98;;;;;;;0.88;100.00;98314.13;4900255;29;20036;-85
2021/12/02 04:07:45;;;;;;;2.55;0.70;;;;;;;0.92;100.00;98321.44;4900021;29;20066;-87
2021/12/02 04:10:11;;;;;;;8.27;0.90;;;;;;;0.90;100.00;98314.81;4899881;29;20043;-84
2021/12/02 04:13:27;;;;;;;6.10;1.05;;;;;;;0.90;100.00;98327.75;4899527;29;20040;-86
2021/12/02 04:15:27;;;;;;;3.17;0.75;;;;;;;0.84;100.00;98308.47;4880428;29;20103;-90
2021/12/02 04:17:53;;;;;;;2.28;0.68;;;;;;;0.69;100.00;98314.16;4899771;29;20059;-84
2021/12/02 04:20:22;;;;;;;1.70;0.75;;;;;;;0.69;100.00;98321.91;4884202;29;20427;-84
2021/12/02 04:22:52;;;;;;;5.78;0.70;;;;;;;0.71;100.00;98325.16;4916430;29;20454;-86
2021/12/02 04:25:19;;;;;;;3.83;1.00;;;;;;;0.65;100.00;98336.09;4884249;29;20113;-85
2021/12/02 04:27:47;;;;;;;3.72;1.02;;;;;;;0.71;100.00;98334.69;4899712;29;20492;-85
2021/12/02 04:30:14;;;;;;;2.10;0.88;;;;;;;0.30;100.00;98304.13;4883763;29;20032;-84
2021/12/02 04:32:40;;;;;;;2.88;1.10;;;;;;;0.62;100.00;98353.66;4899105;29;20039;-84
2021/12/02 04:35:08;;;;;;;1.73;0.80;;;;;;;0.52;100.00;98338.22;4912672;29;20043;-84
2021/12/02 04:37:33;;;;;;;5.65;1.02;;;;;;;0.42;100.00;98335.72;4899663;29;20064;-86
2021/12/02 04:39:59;;;;;;;4.38;1.15;;;;;;;0.23;100.00;98327.13;4879575;29;20064;-84
2021/12/02 04:42:25;;;;;;;4.80;1.05;;;;;;;0.31;100.00;98352.22;4878097;29;20032;-85
2021/12/02 04:44:51;;;;;;;9.07;1.83;;;;;;;0.23;100.00;98358.09;4883682;29;20032;-85
2021/12/02 04:47:16;;;;;;;7.85;1.20;;;;;;;0.27;100.00;98356.06;4899514;29;20036;-85
2021/12/02 04:49:43;;;;;;;3.67;0.82;;;;;;;0.02;100.00;98314.50;4884188;29;20028;-86
2021/12/02 04:52:08;;;;;;;1.33;0.65;;;;;;;0.19;100.00;98348.22;4887114;29;20060;-87
2021/12/02 04:54:34;;;;;;;2.22;0.68;;;;;;;0.18;100.00;98354.31;4886950;29;20067;-87
2021/12/02 04:57:00;;;;;;;2.45;0.80;;;;;;;0.02;100.00;98331.75;4887325;29;20495;-89
2021/12/02 04:59:26;;;;;;;2.58;1.25;;;;;;;0.06;100.00;98336.47;4902462;29;20028;-86
2021/12/02 05:01:51;;;;;;;2.90;0.90;;;;;;;0.06;100.00;98370.03;4902663;29;20378;-86
2021/12/02 05:04:17;;;;;;;5.82;0.93;;;;;;;-0.06;100.00;98342.78;4886990;29;20028;-86
2021/12/02 05:06:42;;;;;;;5.32;0.90;;;;;;;0.05;100.00;98352.09;4886856;29;20040;-84
2021/12/02 05:09:08;;;;;;;1.88;0.80;;;;;;;-0.03;100.00;98361.38;4902416;29;20044;-85
2021/12/02 05:11:34;;;;;;;6.45;1.05;;;;;;;-0.08;100.00;98336.94;4886671;29;20056;-85
2021/12/02 05:14:00;;;;;;;6.35;0.88;;;;;;;-0.15;100.00;98340.13;4886446;29;20067;-87
2021/12/02 05:16:25;;;;;;;4.10;0.80;;;;;;;-0.19;100.00;98345.69;4886883;29;20036;-86
2021/12/02 05:18:53;;;;;;;9.38;1.08;;;;;;;-0.20;100.00;98341.50;4886935;29;20394;-88
2021/12/02 05:21:18;;;;;;;4.60;0.70;;;;;;;-0.28;100.00;98329.31;4902889;29;20032;-87
2021/12/02 05:23:44;;;;;;;1.35;0.70;;;;;;;-0.20;100.00;98350.03;4886674;29;20035;-87
2021/12/02 05:26:10;;;;;;;2.03;0.50;;;;;;;-0.38;100.00;98347.41;4886715;29;20394;-83
2021/12/02 05:28:36;;;;;;;3.15;0.70;;;;;;;-0.47;100.00;98343.09;4886647;29;20142;-84
2021/12/02 05:31:02;;;;;;;3.50;1.40;;;;;;;-0.31;100.00;98358.75;4886832;29;20064;-85
2021/12/02 05:33:27;;;;;;;1.33;0.60;;;;;;;-0.28;100.00;98359.47;4902369;29;20029;-86
2021/12/02 05:35:53;;;;;;;2.83;0.70;;;;;;;-0.40;100.00;98345.91;4901787;29;20046;-86
2021/12/02 05:38:19;;;;;;;6.85;1.15;;;;;;;-0.44;100.00;98343.59;4901637;29;20032;-86
2021/12/02 05:40:45;;;;;;;4.45;0.80;;;;;;;-0.39;100.00;98360.41;4901812;29;20027;-84
2021/12/02 05:43:10;;;;;;;3.88;0.80;;;;;;;-0.48;100.00;98364.69;4901905;29;20053;-87
2021/12/02 05:45:36;;;;;;;1.63;0.77;;;;;;;-0.74;100.00;98318.88;4885993;29;20040;-87
2021/12/02 05:48:02;;;;;;;5.63;1.10;;;;;;;-0.52;100.00;98369.28;4901972;29;20224;-85
2021/12/02 05:50:28;;;;;;;2.03;0.80;;;;;;;-0.64;100.00;98370.41;4885929;29;20036;-83
2021/12/02 05:52:53;;;;;;;3.45;1.10;;;;;;;-0.60;100.00;98367.41;4901540;29;20482;-84
2021/12/02 05:55:19;;;;;;;1.92;0.80;;;;;;;-0.56;100.00;98383.41;4901367;29;20063;-85
2021/12/02 05:57:45;;;;;;;3.70;0.90;;;;;;;-0.73;100.00;98365.13;4901462;29;20083;-86
2021/12/02 06:00:11;;;;;;;6.47;0.93;;;;;;;-0.61;100.00;98375.25;4885884;29;20042;-86
2021/12/02 06:02:37;;;;;;;0.88;0.43;;;;;;;-0.60;100.00;98382.88;4885763;29;20028;-84
2021/12/02 06:05:05;;;;;;;1.92;0.70;;;;;;;-0.51;100.00;98403.59;4885888;29;20450;-86
2021/12/02 06:07:31;;;;;;;4.55;0.90;;;;;;;-0.54;100.00;98394.41;4901790;29;20062;-85
2021/12/02 06:09:57;;;;;;;2.08;0.80;;;;;;;-0.64;100.00;98393.59;4885687;29;20036;-87
2021/12/02 06:12:23;;;;;;;4.18;1.05;;;;;;;-0.64;100.00;98394.41;4901112;29;20063;-86
2021/12/02 06:14:48;;;;;;;2.70;1.17;;;;;;;-0.68;100.00;98387.09;4886002;29;20115;-87
2021/12/02 06:17:14;;;;;;;2.67;0.60;;;;;;;-0.59;100.00;98401.72;4886031;29;20051;-87
2021/12/02 06:19:39;;;;;;;1.55;0.75;;;;;;;-0.60;100.00;98407.81;4885542;29;20123;-84
2021/12/02 06:22:08;;;;;;;6.00;0.75;;;;;;;-0.60;100.00;98407.81;4900850;29;20040;-87
2021/12/02 06:24:43;;;;;;;5.68;0.88;;;;;;;-0.61;100.00;98422.50;4885575;29;20495;-87
2021/12/02 06:27:12;;;;;;;2.45;0.70;;;;;;;-0.61;100.00;98429.41;4885433;29;20031;-86
2021/12/02 06:29:37;;;;;;;2.97;2.15;;;;;;;-0.60;100.00;98407.81;4901863;29;20032;-86
2021/12/02 06:32:06;;;;;;;4.50;0.85;;;;;;;-0.69;100.00;98403.50;4901966;29;20410;-88
2021/12/02 06:34:33;;;;;;;5.32;0.80;;;;;;;-0.56;100.00;98440.13;4901384;29;20035;-86
2021/12/02 06:36:58;;;;;;;4.97;0.73;;;;;;;-0.65;100.00;98440.94;4885810;29;20035;-85
2021/12/02 06:39:24;;;;;;;3.67;0.80;;;;;;;-0.91;100.00;98410.59;4901391;29;20047;-85
2021/12/02 06:41:49;;;;;;;2.35;0.68;;;;;;;-0.72;100.00;98427.78;4885832;29;20522;-84
2021/12/02 06:44:15;;;;;;;5.13;0.90;;;;;;;-0.78;100.00;98425.75;4885743;29;20043;-83
2021/12/02 06:46:40;;;;;;;2.60;0.65;;;;;;;-0.80;100.00;98433.63;4901524;29;20032;-87
2021/12/02 06:49:06;;;;;;;2.65;0.70;;;;;;;-0.79;100.00;98442.97;4901460;29;20043;-85
2021/12/02 06:51:32;;;;;;;4.85;0.77;;;;;;;-0.81;100.00;98442.28;4885718;29;20047;-87
2021/12/02 06:53:58;;;;;;;5.82;0.80;;;;;;;-0.76;100.00;98437.56;4884716;29;20040;-86
2021/12/02 06:56:24;;;;;;;6.43;0.98;;;;;;;-0.57;100.00;98448.81;4900472;29;20062;-87
2021/12/02 06:58:50;;;;;;;3.75;0.85;;;;;;;-0.79;100.00;98430.09;4885285;29;20056;-86
2021/12/02 07:01:16;;;;;;;5.50;0.90;;;;;;;-0.63;100.00;98434.72;4885126;29;20067;-85
2021/12/02 07:03:41;;;;;;;2.40;0.50;;;;;;;-0.82;100.00;98430.38;4885536;29;20123;-85
2021/12/02 07:06:07;;;;;;;3.25;0.82;;;;;;;-0.81;100.00;98411.38;4900239;29;20032;-85
2021/12/02 07:08:33;;;;;;;3.42;0.73;;;;;;;-0.54;100.00;98458.84;4900235;29;20524;-85
2021/12/02 07:11:00;;;;;;;3.38;0.90;;;;;;;-0.65;100.00;98433.22;4900574;29;20099;-85
2021/12/02 07:13:25;;;;;;;2.67;1.10;;;;;;;-0.58;100.00;98447.19;4883707;29;20487;-85
2021/12/02 07:15:54;;;;;;;7.75;1.00;;;;;;;-0.64;100.00;98427.09;4884766;29;20040;-85
2021/12/02 07:18:20;;;;;;;2.83;0.80;;;;;;;-0.47;100.00;98451.38;4900502;29;20095;-84
2021/12/02 07:20:48;;;;;;;3.40;0.98;;;;;;;-0.62;100.00;98445.81;4900257;29;20096;-85
2021/12/02 07:23:16;;;;;;;5.90;0.88;;;;;;;-0.46;100.00;98477.00;4885050;29;20028;-85
2021/12/02 07:25:42;;;;;;;2.63;0.95;;;;;;;-0.66;100.00;98470.25;4885186;29;20079;-85
2021/12/02 07:28:12;;;;;;;4.75;1.48;;;;;;;-0.68;100.00;98444.63;4901049;29;20056;-85
2021/12/02 07:30:39;;;;;;;5.63;0.82;;;;;;;-0.37;100.00;98502.94;4882578;29;20087;-84
2021/12/02 07:33:08;;;;;;;2.85;0.70;;;;;;;-0.35;100.00;98506.19;4884370;29;20055;-83
2021/12/02 07:35:34;;;;;;;2.72;0.85;;;;;;;-0.38;100.00;98515.00;4884469;29;20036;-84
2021/12/02 07:38:01;;;;;;;2.17;0.70;;;;;;;-0.36;100.00;98527.78;4900298;29;20059;-85
2021/12/02 07:40:30;;;;;;;3.75;0.70;;;;;;;-0.45;100.00;98519.09;4899266;29;20036;-84
2021/12/02 07:42:58;;;;;;;2.78;0.70;;;;;;;-0.56;100.00;98512.31;4884004;29;20066;-88
2021/12/02 07:45:28;;;;;;;4.22;0.88;;;;;;;-0.54;100.00;98535.38;4899217;29;20032;-85
2021/12/02 07:47:59;;;;;;;4.50;1.25;;;;;;;-0.60;100.00;98536.72;4915317;29;20479;-85
2021/12/02 07:50:24;;;;;;;2.42;0.70;;;;;;;-0.51;100.00;98561.69;4879189;29;20036;-84
2021/12/02 07:52:53;;;;;;;5.60;1.10;;;;;;;-0.52;100.00;98530.88;4894547;29;20042;-86
2021/12/02 07:55:21;;;;;;;6.05;1.02;;;;;;;-0.63;100.00;98524.09;4877578;29;20123;-83
2021/12/02 07:57:48;;;;;;;2.78;0.60;;;;;;;-0.51;100.00;98551.38;4915630;29;20032;-84
2021/12/02 08:00:17;;;;;;;4.80;0.80;;;;;;;-0.55;100.00;98537.16;4880589;29;20111;-86
2021/12/02 08:02:47;;;;;;;5.60;0.73;;;;;;;-0.62;100.00;98569.53;4882113;29;20047;-86
2021/12/02 08:05:13;;;;;;;1.40;0.60;;;;;;;-0.59;100.00;98566.69;4899494;29;20123;-85
2021/12/02 08:07:41;;;;;;;6.10;1.10;;;;;;;-0.52;100.00;98580.69;4912813;29;20462;-85
2021/12/02 08:10:09;;;;;;;3.90;0.60;;;;;;;-0.46;100.00;98595.63;4899356;29;20490;-87
2021/12/02 08:12:36;;;;;;;2.42;0.90;;;;;;;-0.47;100.00;98591.41;4878694;29;20049;-88
2021/12/02 08:15:07;;;;;;;4.28;0.85;;;;;;;-0.52;100.00;98596.16;4857943;29;20044;-88
2021/12/02 08:17:33;;;;;;;6.38;1.00;;;;;;;-0.51;100.00;98610.69;4880832;29;20040;-88
2021/12/02 08:19:59;;;;;;;6.88;1.10;;;;;;;-0.80;100.00;98572.78;4866036;29;20037;-87
2021/12/02 08:22:25;;;;;;;8.18;1.20;;;;;;;-0.66;100.00;98601.69;4869511;29;20025;-88
2021/12/02 08:24:50;;;;;;;6.45;1.73;;;;;;;-0.88;100.00;98580.38;4874246;29;20406;-89
2021/12/02 08:27:16;;;;;;;7.55;1.63;;;;;;;-0.84;100.00;98561.09;4873755;29;20384;-89
2021/12/02 08:29:42;;;;;;;5.43;0.93;;;;;;;-0.73;100.00;98597.09;4874426;29;20036;-87
2021/12/02 08:32:09;;;;;;;4.20;1.13;;;;;;;-0.75;100.00;98596.41;4872616;29;20061;-88
2021/12/02 08:34:35;;;;;;;6.00;1.08;;;;;;;-0.48;100.00;98638.78;4874237;29;20040;-89
2021/12/02 08:37:01;;;;;;;4.30;1.42;;;;;;;-0.54;100.00;98612.72;4874865;29;20044;-89
2021/12/02 08:39:28;;;;;;;5.68;1.60;;;;;;;-0.52;100.00;98624.53;4890036;29;20513;-88
2021/12/02 08:41:55;;;;;;;8.05;1.50;;;;;;;-0.72;100.00;98606.44;4875522;29;20043;-88
2021/12/02 08:44:23;;;;;;;11.80;3.13;;;;;;;-0.60;100.00;98614.88;4874516;29;20067;-90
2021/12/02 08:46:51;;;;;;;3.38;2.25;;;;;;;-0.38;100.00;98635.41;4875916;29;20499;-88
2021/12/02 08:49:18;;;;;;;8.90;1.60;;;;;;;-0.32;100.00;98647.75;4875218;29;20047;-88
2021/12/02 08:51:45;;;;;;;6.55;1.48;;;;;;;-0.46;100.00;98629.16;4876659;29;20037;-89
2021/12/02 08:54:12;;;;;;;5.18;1.67;;;;;;;-0.41;100.00;98636.47;4876508;29;20491;-89
2021/12/02 08:56:38;;;;;;;7.65;2.17;;;;;;;-0.31;100.00;98650.19;4875895;29;20036;-87
2021/12/02 08:59:04;;;;;;;4.93;1.65;;;;;;;-0.33;100.00;98656.44;4874988;29;20040;-88
2021/12/02 09:01:32;;;;;;;4.90;1.10;;;;;;;-0.37;100.00;98645.56;4874471;29;20039;-91
2021/12/02 09:03:59;;;;;;;2.13;1.08;;;;;;;-0.53;100.00;98610.00;4875506;29;20063;-87
2021/12/02 09:06:27;;;;;;;5.35;2.05;;;;;;;-0.39;100.00;98620.88;4876057;29;20187;-89
2021/12/02 09:08:58;;;;;;;8.73;1.65;;;;;;;-0.77;100.00;98577.69;4891269;29;20039;-88
2021/12/02 09:11:23;;;;;;;11.23;2.45;;;;;;;-0.30;100.00;98645.88;4876945;29;20032;-89
2021/12/02 09:13:51;;;;;;;8.43;1.55;;;;;;;-0.46;100.00;98612.88;4893246;29;20431;-88
2021/12/02 09:16:19;;;;;;;10.90;1.85;;;;;;;-0.61;100.00;98599.53;4893653;29;20050;-88
2021/12/02 09:18:44;;;;;;;5.85;1.90;;;;;;;-0.49;100.00;98598.47;4904625;29;20056;-88
2021/12/02 09:21:10;;;;;;;5.63;1.50;;;;;;;-0.27;100.00;98637.06;4892804;29;20051;-88
2021/12/02 09:23:36;;;;;;;6.53;1.83;;;;;;;-0.26;100.00;98625.78;4891258;29;20119;-88
2021/12/02 09:26:01;;;;;;;6.80;1.33;;;;;;;-0.20;100.00;98641.50;4891526;29;20044;-88
2021/12/02 09:28:27;;;;;;;12.57;1.80;;;;;;;-0.25;100.00;98637.72;4905633;29;20497;-88
2021/12/02 09:30:56;;;;;;;7.22;1.45;;;;;;;-0.18;100.00;98660.28;4891932;29;20044;-89
2021/12/02 09:33:22;;;;;;;6.30;1.63;;;;;;;-0.30;100.00;98620.88;4912856;29;20100;-91
2021/12/02 09:35:48;;;;;;;6.97;2.17;;;;;;;-0.46;100.00;98595.63;4894279;29;20062;-90
2021/12/02 09:38:13;;;;;;;7.72;1.80;;;;;;;-0.28;100.00;98630.25;4891059;29;20482;-89
2021/12/02 09:40:41;;;;;;;10.57;1.75;;;;;;;-0.11;100.00;98662.31;4895631;29;20036;-88
2021/12/02 09:43:10;;;;;;;13.02;2.00;;;;;;;-0.33;100.00;98640.97;4893517;29;20036;-87
2021/12/02 09:45:37;;;;;;;8.15;1.92;;;;;;;-0.05;100.00;98669.50;4905607;29;20509;-88
2021/12/02 09:48:03;;;;;;;20.38;2.88;;;;;;;-0.15;100.00;98657.41;4891389;29;20032;-86
2021/12/02 09:50:36;;;;;;;8.55;1.80;;;;;;;-0.08;100.00;98670.59;4890459;29;20072;-88
2021/12/02 09:53:34;;;;;;;9.13;1.67;;;;;;;-0.29;100.00;98639.75;4883366;29;20047;-88
2021/12/02 09:56:15;;;;;;;10.95;1.90;;;;;;;0.03;100.00;98700.63;4880811;29;20031;-88
2021/12/02 09:58:41;;;;;;;8.98;2.35;;;;;;;-0.27;100.00;98642.22;4893324;29;20046;-87
2021/12/02 10:01:13;;;;;;;11.82;2.08;;;;;;;-0.12;100.00;98678.72;4891923;29;20064;-89
2021/12/02 10:03:40;;;;;;;13.82;2.25;;;;;;;-0.13;100.00;98646.16;4887814;29;20048;-87
2021/12/02 10:06:16;;;;;;;8.15;1.73;;;;;;;0.18;100.00;98695.84;4885008;29;20036;-86
2021/12/02 10:08:52;;;;;;;8.80;2.22;;;;;;;0.13;100.00;98683.34;4883461;29;20032;-88
2021/12/02 10:12:29;;;;;;;10.82;2.58;;;;;;;0.03;100.00;98692.03;4887875;29;20032;-89
2021/12/02 10:15:27;;;;;;;11.00;3.45;;;;;;;0.45;100.00;98717.59;4829791;29;20038;-89
2021/12/02 10:18:08;;;;;;;11.40;2.40;;;;;;;0.46;100.00;98728.75;4811505;29;20144;-91
2021/12/02 10:24:29;;;;;;;8.23;1.85;;;;;;;0.50;100.00;98737.84;4830203;29;20053;-88
2021/12/02 10:27:05;;;;;;;11.02;2.55;;;;;;;0.51;100.00;98760.97;4904395;29;20107;-90
2021/12/02 10:29:36;;;;;;;10.80;2.55;;;;;;;0.18;100.00;98702.78;4892552;29;20036;-90
2021/12/02 10:32:19;;;;;;;18.75;3.75;;;;;;;0.23;100.00;98704.00;4890386;29;20040;-88
2021/12/02 10:34:56;;;;;;;11.23;2.28;;;;;;;0.44;100.00;98733.22;4889504;29;20040;-88
2021/12/02 10:37:29;;;;;;;14.70;3.60;;;;;;;0.52;100.00;98725.59;4889750;29;20119;-87
2021/12/02 10:47:31;;;;;;;12.75;1.98;;;;;;;0.45;100.00;98721.94;4885833;29;20047;-87
2021/12/02 10:49:59;;;;;;;11.35;2.67;;;;;;;0.76;100.00;98760.50;4903035;29;20035;-87
2021/12/02 10:52:30;;;;;;;7.80;1.90;;;;;;;0.63;100.00;98738.38;4902388;29;20474;-86
2021/12/02 10:55:00;;;;;;;12.15;4.20;;;;;;;0.75;100.00;98769.22;4902571;29;20103;-85
2021/12/02 10:57:28;;;;;;;8.27;2.00;;;;;;;0.65;100.00;98744.22;4900712;29;20134;-85
2021/12/02 10:59:56;;;;;;;17.73;2.53;;;;;;;0.60;100.00;98728.31;4902982;29;20044;-87
2021/12/02 11:02:35;;;;;;;13.35;2.50;;;;;;;0.82;100.00;98759.97;4902086;29;20036;-86
2021/12/02 11:05:24;;;;;;;19.40;3.20;;;;;;;0.68;100.00;98751.69;4902403;29;20095;-88
2021/12/02 11:08:06;;;;;;;13.27;3.63;;;;;;;0.69;100.00;98719.72;4901647;29;20051;-88
2021/12/02 11:10:40;;;;;;;;;;;;;;;0.94;100.00;98758.84;4886021;29;20040;-84
2021/12/02 11:13:08;;;;;;;9.95;2.05;;;;;;;0.94;100.00;98761.44;4900748;29;20009;-88
2021/12/02 11:15:37;;;;;;;14.30;3.45;;;;;;;0.80;100.00;98736.03;4885630;29;20036;-86
2021/12/02 11:18:05;;;;;;;6.20;1.95;;;;;;;0.80;100.00;98730.88;4885936;29;20044;-86
2021/12/02 11:20:40;;;;;;;15.93;2.15;;;;;;;1.01;100.00;98742.78;4885368;29;20496;-87
2021/12/02 11:27:10;;;;;;;19.38;4.00;;;;;;;0.62;100.00;98687.66;4895284;29;20055;-87
2021/12/02 11:37:11;;;;;;;12.23;2.95;;;;;;;0.75;100.00;98708.03;4861437;29;20049;-87
2021/12/02 11:39:40;;;;;;;12.57;2.58;;;;;;;0.66;100.00;98691.59;4883550;29;20043;-87
2021/12/02 11:42:07;;;;;;;17.13;3.03;;;;;;;0.88;100.00;98719.81;4877180;29;20040;-87
2021/12/02 11:44:33;;;;;;;16.13;4.07;;;;;;;0.99;100.00;98746.34;4870325;29;20036;-89
2021/12/02 11:46:59;;;;;;;16.88;3.08;;;;;;;1.08;100.00;98743.84;4888702;29;20072;-91
2021/12/02 11:49:25;;;;;;;12.57;2.75;;;;;;;0.90;100.00;98702.44;4891009;29;20060;-89
2021/12/02 11:55:45;;;;;;;8.43;1.85;;;;;;;0.86;100.00;98704.47;4912837;29;20063;-86
2021/12/02 11:58:11;;;;;;;16.58;2.17;;;;;;;0.93;100.00;98715.88;4904969;29;20052;-91
2021/12/02 12:00:37;;;;;;;10.70;2.65;;;;;;;0.82;100.00;98708.28;4890305;29;20032;-88
2021/12/02 12:03:04;;;;;;;13.10;1.95;;;;;;;0.81;100.00;98706.66;4891474;29;20407;-89
2021/12/02 12:05:40;;;;;;;14.57;2.78;;;;;;;0.81;100.00;98727.34;4891260;29;20570;-86
2021/12/02 12:08:06;;;;;;;9.10;2.40;;;;;;;0.97;100.00;98732.72;4884513;29;20043;-87
2021/12/02 12:10:36;;;;;;;6.70;1.90;;;;;;;0.83;100.00;98722.84;4892571;29;20040;-88
2021/12/02 12:13:15;;;;;;;9.98;2.08;;;;;;;0.69;100.00;98680.97;4888585;29;20086;-88
2021/12/02 12:15:44;;;;;;;10.15;1.83;;;;;;;1.05;100.00;98736.38;4910084;29;20040;-92